Terminal Aerodrome Forecast
Issued by NWS

Home | Current Version | Previous Version | Text Only | Print | Product List | Glossary On
Versions: 1 2 3 4 5 6 7 8 9 10 11 12 13 14 15 16 17 18 19 20 21 22 23 24 25 26 27 28
000
FTUS43 KPAH 291720
TAFCGI
TAF
KCGI 291720Z 2918/3018 25005KT P6SM VCTS SCT015CB OVC050
      TEMPO 2919/2923 2SM TSRA BR OVC015CB
     FM292300 VRB04KT P6SM SCT040 BKN100
     FM300600 00000KT 3SM BR SCT080
      TEMPO 3008/3012 1SM BR BKN005
     FM301500 29003KT P6SM SCT015 BKN050=

USA.gov is the U.S. government's official web portal to all federal, state and local government web resources and services.